logo
Search for airport 
image banner adimage banner adimage banner ad
image banner ad

FLCN - Ching'ombe

Located in Chingombe, Zambia

ICAO - , IATA -

Data provided by Airmate  

General information

Coordinates: S14°25'1" E29°59'20"
Elevation is 1671 feet MSL.
Magnetic variation is -5° East
View others Airports in Central Province

Operational data

Special qualification required
Current time UTC:
Current local time:
Weather at : - ( 0 km )
METAR: MMMX 202242Z 26018KT 6SM TSRA BKN020CB OVC080 23/05 A3025 NOSIG RMK 8/96/ HZY TSB40 RAB41 OCNL LTGICCG W
View NOTAMs / SUP AIP / TFR affecting this airport [VIEW]
Communications frequencies: [VIEW]

Runways:

RWY identifierQFULength (ft)Width (ft)SurfaceLDA (ft)
28270°371077DIRT
1090°371077DIRT

Airport contact information

Address: Chingombe Zambia

Satellite view of FLCN